Time;durP1;ratioP1;P1;durP2;ratioP2;P2;SDS_P1;SDS_P2;PMS_P1;PMS_P2;Temp;Humidity;BMP_temperature;BMP_pressure;BME280_temperature;BME280_humidity;BME280_pressure;Samples;Min_cycle;Max_cycle;Signal;HPM_P1;HPM_P2
2023/08/26 00:01:22;;;;;;;14.32;8.95;;;17.60;84.70;;;;;;4955370;28;20051;-87
2023/08/26 00:03:51;;;;;;;16.08;8.80;;;17.60;84.80;;;;;;4955036;28;20058;-87
2023/08/26 00:06:19;;;;;;;15.13;8.87;;;17.60;84.90;;;;;;4953744;28;20130;-88
2023/08/26 00:08:47;;;;;;;15.48;8.60;;;17.60;84.90;;;;;;4954993;28;20145;-89
2023/08/26 00:11:14;;;;;;;14.70;8.30;;;17.60;84.90;;;;;;4955002;28;20630;-88
2023/08/26 00:13:41;;;;;;;12.48;7.63;;;17.70;84.80;;;;;;4953814;28;20523;-89
2023/08/26 00:16:08;;;;;;;12.40;7.88;;;17.60;84.60;;;;;;4951505;28;20058;-88
2023/08/26 00:18:35;;;;;;;14.60;7.90;;;17.60;84.40;;;;;;4954703;28;20059;-87
2023/08/26 00:21:02;;;;;;;11.20;6.18;;;17.60;84.40;;;;;;4954550;28;20142;-88
2023/08/26 00:23:31;;;;;;;12.35;7.18;;;17.50;84.20;;;;;;4966069;28;20052;-88
2023/08/26 00:26:00;;;;;;;12.23;7.15;;;17.50;84.00;;;;;;4969882;28;20062;-88
2023/08/26 00:28:28;;;;;;;11.60;6.40;;;17.40;83.90;;;;;;4954754;28;20122;-89
2023/08/26 00:30:58;;;;;;;12.73;7.13;;;17.40;83.80;;;;;;4954095;28;20058;-88
2023/08/26 00:33:27;;;;;;;11.77;6.75;;;17.30;83.70;;;;;;4954588;28;20619;-87
2023/08/26 00:35:54;;;;;;;13.52;7.32;;;17.20;83.70;;;;;;4954266;28;20055;-87
2023/08/26 00:38:24;;;;;;;14.00;7.03;;;17.20;83.90;;;;;;4954405;28;20054;-87
2023/08/26 00:40:52;;;;;;;12.98;7.00;;;17.20;84.00;;;;;;4955027;28;20055;-88
2023/08/26 00:43:21;;;;;;;12.57;7.03;;;17.20;84.00;;;;;;4970385;28;20142;-87
2023/08/26 00:45:51;;;;;;;12.85;7.15;;;17.20;84.00;;;;;;4954619;28;20644;-87
2023/08/26 00:48:19;;;;;;;10.38;6.38;;;17.20;84.00;;;;;;4953992;28;20092;-88
2023/08/26 00:50:49;;;;;;;9.65;4.97;;;17.20;83.90;;;;;;4953927;28;20437;-88
2023/08/26 00:53:18;;;;;;;10.15;6.18;;;17.20;83.80;;;;;;4954553;28;20489;-87
2023/08/26 00:55:45;;;;;;;12.13;5.73;;;17.20;83.70;;;;;;4953391;28;20130;-88
2023/08/26 00:58:13;;;;;;;9.25;5.03;;;17.10;83.80;;;;;;4953576;28;20051;-88
2023/08/26 01:00:42;;;;;;;8.77;4.63;;;17.00;83.90;;;;;;4953386;28;20124;-88
2023/08/26 01:03:12;;;;;;;8.77;3.90;;;17.00;84.00;;;;;;4953442;28;20502;-88
2023/08/26 01:05:41;;;;;;;9.20;5.13;;;17.00;83.90;;;;;;4953368;28;20048;-88
2023/08/26 01:08:09;;;;;;;10.07;5.67;;;17.00;83.80;;;;;;4953629;28;20057;-89
2023/08/26 01:10:46;;;;;;;7.88;5.28;;;16.90;83.90;;;;;;4955119;28;20110;-87
2023/08/26 01:13:16;;;;;;;10.43;5.43;;;16.90;84.00;;;;;;4954510;28;20187;-89
2023/08/26 01:15:49;;;;;;;9.30;5.35;;;16.90;84.00;;;;;;4954485;28;20054;-88
2023/08/26 01:18:17;;;;;;;9.48;4.80;;;16.80;84.00;;;;;;4953813;28;20062;-88
2023/08/26 01:20:44;;;;;;;10.17;5.03;;;16.80;84.10;;;;;;4953467;28;20106;-89
2023/08/26 01:23:18;;;;;;;9.65;5.22;;;16.80;84.00;;;;;;4969895;28;20055;-88
2023/08/26 01:25:46;;;;;;;8.30;5.15;;;16.80;84.10;;;;;;5002802;28;20059;-89
2023/08/26 01:28:14;;;;;;;8.15;5.15;;;16.70;84.20;;;;;;4953822;28;20063;-88
2023/08/26 01:30:41;;;;;;;9.60;5.40;;;16.80;84.30;;;;;;4953662;28;20130;-89
2023/08/26 01:33:19;;;;;;;10.60;5.17;;;16.80;84.30;;;;;;4953943;28;20062;-88
2023/08/26 01:35:50;;;;;;;10.32;5.60;;;16.80;84.30;;;;;;4954057;28;20079;-89
2023/08/26 01:38:18;;;;;;;9.52;5.28;;;16.80;84.30;;;;;;4953788;28;20382;-88
2023/08/26 01:40:52;;;;;;;10.57;5.60;;;16.80;84.20;;;;;;4953548;28;20425;-87
2023/08/26 01:43:20;;;;;;;7.93;5.35;;;16.80;84.20;;;;;;4953489;28;20067;-88
2023/08/26 01:45:53;;;;;;;11.33;5.40;;;16.80;84.20;;;;;;4985410;28;20114;-87
2023/08/26 01:48:20;;;;;;;10.73;5.43;;;16.80;84.10;;;;;;4953771;28;20055;-89
2023/08/26 01:50:47;;;;;;;8.57;5.22;;;16.80;84.10;;;;;;4953310;28;20055;-89
2023/08/26 01:53:14;;;;;;;8.30;4.57;;;16.80;83.90;;;;;;4953568;28;20110;-88
2023/08/26 01:55:41;;;;;;;8.85;4.90;;;16.80;83.80;;;;;;4953421;28;20118;-87
2023/08/26 01:58:09;;;;;;;8.57;4.77;;;16.80;83.70;;;;;;4953263;28;20506;-88
2023/08/26 02:00:36;;;;;;;11.88;3.90;;;16.80;83.60;;;;;;4969694;28;20429;-88
2023/08/26 02:03:03;;;;;;;9.38;4.18;;;16.70;83.60;;;;;;4953547;28;20194;-88
2023/08/26 02:05:32;;;;;;;8.93;4.28;;;16.70;83.50;;;;;;4953119;28;20051;-88
2023/08/26 02:08:00;;;;;;;8.88;4.40;;;16.60;83.30;;;;;;4953170;28;20587;-87
2023/08/26 02:10:29;;;;;;;7.47;4.10;;;16.60;83.60;;;;;;4953694;28;20058;-88
2023/08/26 02:12:57;;;;;;;9.45;4.50;;;16.50;83.60;;;;;;4953357;28;20519;-87
2023/08/26 02:15:26;;;;;;;8.95;4.18;;;16.50;83.90;;;;;;4953481;28;20728;-87
2023/08/26 02:17:53;;;;;;;9.77;4.60;;;16.40;84.00;;;;;;4953559;28;20055;-88
2023/08/26 02:20:21;;;;;;;8.57;4.50;;;16.40;84.00;;;;;;4953366;28;20059;-89
2023/08/26 02:22:48;;;;;;;8.70;4.40;;;16.40;84.00;;;;;;4952974;28;20059;-87
2023/08/26 02:25:15;;;;;;;7.90;4.05;;;16.40;84.00;;;;;;4953566;28;20051;-87
2023/08/26 02:27:42;;;;;;;10.63;4.53;;;16.40;84.10;;;;;;4968914;28;20604;-88
2023/08/26 02:30:12;;;;;;;7.85;4.18;;;16.30;84.00;;;;;;4952205;28;20058;-88
2023/08/26 02:32:41;;;;;;;9.98;4.47;;;16.20;84.30;;;;;;4952917;28;20055;-88
2023/08/26 02:35:08;;;;;;;7.23;3.77;;;16.20;84.20;;;;;;4952978;28;20126;-87
2023/08/26 02:37:35;;;;;;;7.85;4.38;;;16.20;84.40;;;;;;4968801;28;20198;-87
2023/08/26 02:40:03;;;;;;;8.43;3.92;;;16.20;84.30;;;;;;4953038;28;20062;-88
2023/08/26 02:42:30;;;;;;;6.78;3.90;;;16.10;84.30;;;;;;4953100;28;20585;-88
2023/08/26 02:44:57;;;;;;;8.23;4.22;;;16.10;84.30;;;;;;4953053;28;20082;-88
2023/08/26 02:47:24;;;;;;;8.40;4.17;;;16.00;84.40;;;;;;4953337;28;20147;-89
2023/08/26 02:49:52;;;;;;;7.60;4.15;;;16.00;84.50;;;;;;4952496;28;20051;-88
2023/08/26 02:52:21;;;;;;;9.02;4.53;;;16.00;84.50;;;;;;4952723;28;20063;-87
2023/08/26 02:54:48;;;;;;;10.52;4.60;;;16.00;84.60;;;;;;4969172;28;20059;-88
2023/08/26 02:57:17;;;;;;;8.85;4.18;;;16.00;84.70;;;;;;4952566;28;20138;-87
2023/08/26 02:59:49;;;;;;;8.37;4.40;;;16.00;84.70;;;;;;4968762;28;20051;-87
2023/08/26 03:02:24;;;;;;;7.68;4.35;;;16.00;84.70;;;;;;4952619;28;20043;-87
2023/08/26 03:04:53;;;;;;;8.23;3.92;;;16.00;84.70;;;;;;4952585;28;20057;-88
2023/08/26 03:07:19;;;;;;;7.13;3.75;;;16.00;84.60;;;;;;4952797;28;20054;-87
2023/08/26 03:09:47;;;;;;;7.72;4.30;;;16.00;84.40;;;;;;4952400;28;20138;-88
2023/08/26 03:12:13;;;;;;;7.40;4.23;;;16.00;84.30;;;;;;4952736;28;20138;-88
2023/08/26 03:14:40;;;;;;;7.38;4.00;;;16.00;84.30;;;;;;4952530;28;20597;-88
2023/08/26 03:17:08;;;;;;;6.97;3.97;;;15.90;84.30;;;;;;4968637;28;20053;-88
2023/08/26 03:19:35;;;;;;;8.13;4.03;;;15.90;84.40;;;;;;4952744;28;20138;-88
2023/08/26 03:22:05;;;;;;;7.03;3.80;;;15.90;84.30;;;;;;4952397;28;20106;-88
2023/08/26 03:24:36;;;;;;;7.30;4.03;;;15.80;84.20;;;;;;4952806;28;20071;-88
2023/08/26 03:27:05;;;;;;;10.45;4.10;;;15.80;84.20;;;;;;4952151;28;20118;-88
2023/08/26 03:29:32;;;;;;;10.38;4.40;;;15.80;84.20;;;;;;4952236;28;20056;-88
2023/08/26 03:32:02;;;;;;;7.55;3.92;;;15.80;84.20;;;;;;4952357;28;20048;-88
2023/08/26 03:34:30;;;;;;;9.52;4.10;;;15.90;84.20;;;;;;4952425;28;20055;-88
2023/08/26 03:37:00;;;;;;;7.67;3.50;;;15.90;84.00;;;;;;4952220;28;20054;-88
2023/08/26 03:39:33;;;;;;;8.85;3.97;;;15.90;83.90;;;;;;4952070;28;20134;-88
2023/08/26 03:42:02;;;;;;;6.60;3.58;;;15.90;83.90;;;;;;4954713;28;20059;-88
2023/08/26 03:44:29;;;;;;;6.93;3.33;;;15.90;83.90;;;;;;4955830;28;20047;-87
2023/08/26 03:46:58;;;;;;;6.40;3.55;;;15.90;83.80;;;;;;4955606;28;20099;-88
2023/08/26 03:49:27;;;;;;;8.70;3.67;;;16.00;83.70;;;;;;4955622;28;20114;-88
2023/08/26 03:51:54;;;;;;;7.63;3.22;;;16.00;83.70;;;;;;4955168;28;20058;-88
2023/08/26 03:54:21;;;;;;;5.15;3.00;;;16.00;83.60;;;;;;4955294;28;20047;-88
2023/08/26 03:56:51;;;;;;;7.25;3.33;;;16.00;83.40;;;;;;4955562;28;20062;-87
2023/08/26 03:59:18;;;;;;;5.43;2.90;;;16.00;83.30;;;;;;4955201;28;20153;-88
2023/08/26 04:01:46;;;;;;;6.87;2.97;;;16.00;83.20;;;;;;4955266;28;20118;-88
2023/08/26 04:04:15;;;;;;;6.68;3.60;;;16.00;83.20;;;;;;4955285;28;20056;-89
2023/08/26 04:06:43;;;;;;;6.75;3.58;;;16.00;83.00;;;;;;4955408;28;20146;-88
2023/08/26 04:09:12;;;;;;;8.68;3.90;;;16.00;83.00;;;;;;4953164;28;20637;-88
2023/08/26 04:11:40;;;;;;;6.97;3.75;;;16.00;83.00;;;;;;4971091;28;20059;-87
2023/08/26 04:14:12;;;;;;;9.63;3.53;;;16.00;83.00;;;;;;4971045;28;20099;-88
2023/08/26 04:16:40;;;;;;;6.57;3.15;;;16.00;83.00;;;;;;4957850;28;20465;-89
2023/08/26 04:19:07;;;;;;;5.82;3.28;;;16.00;82.90;;;;;;4944370;28;20075;-88
2023/08/26 04:21:34;;;;;;;6.82;3.35;;;16.00;82.80;;;;;;4935356;28;20051;-88
2023/08/26 04:24:06;;;;;;;5.88;3.22;;;16.00;82.80;;;;;;4944772;28;20379;-89
2023/08/26 04:26:33;;;;;;;6.53;3.30;;;16.00;82.60;;;;;;4970960;28;20158;-89
2023/08/26 04:29:02;;;;;;;6.07;3.40;;;16.00;82.60;;;;;;4954206;28;20055;-89
2023/08/26 04:31:31;;;;;;;6.95;3.20;;;16.00;82.50;;;;;;4947200;28;20057;-88
2023/08/26 04:33:58;;;;;;;6.18;3.25;;;16.00;82.40;;;;;;4955005;28;20083;-88
2023/08/26 04:36:25;;;;;;;7.55;3.20;;;16.00;82.40;;;;;;4954779;28;20178;-89
2023/08/26 04:38:52;;;;;;;7.43;3.73;;;16.00;82.20;;;;;;4954989;28;20086;-88
2023/08/26 04:41:19;;;;;;;6.15;3.40;;;16.00;82.10;;;;;;4953959;28;20856;-88
2023/08/26 04:43:47;;;;;;;6.18;3.40;;;16.00;82.00;;;;;;4954703;28;20562;-89
2023/08/26 04:46:20;;;;;;;6.80;3.58;;;16.00;82.00;;;;;;4954221;28;20057;-88
2023/08/26 04:48:51;;;;;;;7.45;3.70;;;16.00;82.10;;;;;;4954464;28;20061;-89
2023/08/26 04:51:18;;;;;;;7.27;3.80;;;16.00;82.10;;;;;;4954115;28;20137;-88
2023/08/26 04:53:45;;;;;;;7.35;3.58;;;16.00;82.10;;;;;;4954137;28;20047;-88
2023/08/26 04:56:13;;;;;;;8.10;4.22;;;16.00;82.20;;;;;;4954903;28;20170;-88
2023/08/26 04:58:45;;;;;;;6.55;4.00;;;16.00;82.30;;;;;;4954008;28;20585;-88
2023/08/26 05:01:12;;;;;;;8.23;4.03;;;16.00;82.30;;;;;;4954349;28;20086;-88
2023/08/26 05:03:39;;;;;;;8.97;4.30;;;16.00;82.40;;;;;;4955278;28;20105;-88
2023/08/26 05:06:08;;;;;;;8.48;4.82;;;16.00;82.50;;;;;;4955346;28;20142;-87
2023/08/26 05:08:35;;;;;;;8.80;4.85;;;16.00;82.60;;;;;;4955600;28;20051;-87
2023/08/26 05:11:03;;;;;;;8.15;4.57;;;16.00;82.60;;;;;;4954821;28;20138;-88
2023/08/26 05:13:31;;;;;;;8.38;4.78;;;16.00;82.70;;;;;;4955436;28;20117;-87
2023/08/26 05:16:00;;;;;;;12.50;5.50;;;16.00;82.80;;;;;;4955576;28;20130;-86
2023/08/26 05:18:29;;;;;;;9.38;5.03;;;16.00;82.80;;;;;;4955731;28;20482;-88
2023/08/26 05:20:57;;;;;;;10.20;5.10;;;15.90;83.00;;;;;;4955405;28;20157;-88
2023/08/26 05:23:25;;;;;;;8.73;5.40;;;16.00;83.10;;;;;;4968512;28;20051;-87
2023/08/26 05:25:54;;;;;;;7.95;4.78;;;15.90;83.20;;;;;;4946937;28;20059;-88
2023/08/26 05:28:21;;;;;;;8.77;5.43;;;15.90;83.30;;;;;;4953427;28;20578;-87
2023/08/26 05:30:49;;;;;;;11.60;5.93;;;15.90;83.40;;;;;;4985761;28;20067;-88
2023/08/26 05:33:17;;;;;;;9.00;5.50;;;15.90;83.60;;;;;;4985455;28;20055;-90
2023/08/26 05:35:46;;;;;;;10.70;5.70;;;15.90;83.70;;;;;;4984562;28;20051;-88
2023/08/26 05:38:13;;;;;;;10.82;5.90;;;15.90;83.80;;;;;;4952664;28;20055;-89
2023/08/26 05:40:42;;;;;;;9.00;5.13;;;15.90;84.10;;;;;;4974902;28;20056;-90
2023/08/26 05:43:10;;;;;;;11.07;5.80;;;15.90;84.10;;;;;;4952598;28;20688;-89
2023/08/26 05:45:38;;;;;;;10.40;5.70;;;15.90;84.40;;;;;;4954217;28;20537;-89
2023/08/26 05:48:06;;;;;;;13.05;6.40;;;15.90;84.40;;;;;;4952654;28;20143;-89
2023/08/26 05:50:33;;;;;;;10.93;5.85;;;16.00;84.50;;;;;;4994237;28;20059;-89
2023/08/26 05:53:01;;;;;;;9.63;5.60;;;16.00;84.60;;;;;;4953157;28;20051;-89
2023/08/26 05:55:28;;;;;;;12.15;5.38;;;16.00;84.60;;;;;;4985959;28;20051;-90
2023/08/26 05:57:57;;;;;;;11.15;6.18;;;15.90;84.60;;;;;;4953998;28;20051;-89
2023/08/26 06:00:26;;;;;;;11.98;6.60;;;16.00;84.80;;;;;;4952796;28;20059;-89
2023/08/26 06:02:53;;;;;;;13.30;6.53;;;16.00;84.90;;;;;;4977989;28;20059;-89
2023/08/26 06:05:24;;;;;;;10.47;5.87;;;16.00;85.00;;;;;;4952051;28;20130;-88
2023/08/26 06:07:51;;;;;;;12.00;6.07;;;16.00;85.00;;;;;;4953910;28;20086;-89
2023/08/26 06:10:19;;;;;;;10.85;6.32;;;16.00;85.10;;;;;;4953132;28;20091;-90
2023/08/26 06:12:47;;;;;;;10.38;6.53;;;16.00;85.20;;;;;;4953214;28;20613;-89
2023/08/26 06:15:18;;;;;;;12.48;7.07;;;16.00;85.30;;;;;;4952812;28;20146;-89
2023/08/26 06:17:47;;;;;;;12.43;6.73;;;16.00;85.50;;;;;;4953696;28;20047;-89
2023/08/26 06:20:19;;;;;;;13.38;7.38;;;16.00;85.70;;;;;;4976039;28;20574;-88
2023/08/26 06:22:48;;;;;;;14.05;7.32;;;16.00;85.60;;;;;;4953298;28;20108;-88
2023/08/26 06:25:20;;;;;;;13.23;7.78;;;16.00;85.70;;;;;;4952572;28;20059;-89
2023/08/26 06:27:47;;;;;;;16.58;7.82;;;16.00;85.80;;;;;;4952757;28;20585;-88
2023/08/26 06:30:18;;;;;;;12.37;7.00;;;16.00;85.90;;;;;;4952592;28;20585;-88
2023/08/26 06:32:51;;;;;;;12.48;7.28;;;16.10;85.90;;;;;;4953149;28;20055;-90
2023/08/26 06:35:26;;;;;;;15.23;8.13;;;16.10;85.90;;;;;;4951356;28;20055;-88
2023/08/26 06:37:57;;;;;;;16.27;9.05;;;16.10;86.00;;;;;;4959582;28;20533;-88
2023/08/26 06:40:25;;;;;;;16.05;8.60;;;16.10;86.20;;;;;;4975942;28;20047;-92
2023/08/26 06:43:18;;;;;;;15.50;8.87;;;16.10;86.10;;;;;;4948219;28;20991;-88
2023/08/26 06:48:59;;;;;;;15.15;9.55;;;16.10;86.00;;;;;;4949833;28;20098;-89
2023/08/26 06:51:27;;;;;;;17.60;10.02;;;16.10;85.90;;;;;;4950584;28;21058;-90
2023/08/26 06:53:56;;;;;;;16.35;10.15;;;16.10;85.90;;;;;;4954397;28;20052;-90
2023/08/26 06:56:25;;;;;;;19.40;10.80;;;16.10;85.80;;;;;;4933573;28;20055;-88
2023/08/26 06:58:54;;;;;;;19.73;10.32;;;16.10;85.70;;;;;;4955973;28;20048;-88
2023/08/26 07:01:21;;;;;;;15.80;10.27;;;16.10;85.70;;;;;;4933454;29;21019;-88
2023/08/26 07:04:05;;;;;;;19.20;11.68;;;16.10;85.70;;;;;;4948116;28;20084;-87
2023/08/26 07:06:34;;;;;;;20.30;11.80;;;16.10;85.80;;;;;;4964417;28;20146;-89
2023/08/26 07:09:04;;;;;;;18.03;11.20;;;16.10;85.80;;;;;;4948851;28;20056;-87
2023/08/26 07:11:32;;;;;;;19.65;11.20;;;16.10;85.80;;;;;;4950681;28;20063;-86
2023/08/26 07:14:00;;;;;;;26.50;11.80;;;16.10;85.60;;;;;;4934805;28;20048;-89
2023/08/26 07:16:27;;;;;;;19.90;11.85;;;16.10;85.60;;;;;;4947983;28;20056;-87
2023/08/26 07:18:54;;;;;;;18.40;10.57;;;16.10;85.10;;;;;;4950698;28;20672;-85
2023/08/26 07:21:25;;;;;;;21.47;11.33;;;16.10;84.90;;;;;;4952240;28;20056;-86
2023/08/26 07:23:52;;;;;;;15.43;10.75;;;16.10;84.60;;;;;;4938435;28;20100;-89
2023/08/26 07:26:19;;;;;;;16.67;10.85;;;16.00;84.50;;;;;;4937514;28;20063;-85
2023/08/26 07:28:48;;;;;;;20.67;11.48;;;16.10;84.20;;;;;;4952878;28;20107;-86
2023/08/26 07:31:15;;;;;;;19.70;11.40;;;16.00;84.00;;;;;;4951839;28;20154;-87
2023/08/26 07:33:42;;;;;;;20.03;11.83;;;16.00;83.90;;;;;;4950317;28;20052;-85
2023/08/26 07:36:10;;;;;;;20.23;11.35;;;16.00;84.10;;;;;;4952821;28;20054;-86
2023/08/26 07:38:41;;;;;;;20.27;11.68;;;16.00;84.10;;;;;;4933139;29;20056;-87
2023/08/26 07:41:08;;;;;;;18.77;10.27;;;16.00;84.00;;;;;;4947301;28;20054;-87
2023/08/26 07:43:37;;;;;;;19.75;11.20;;;16.00;83.70;;;;;;4952732;28;20138;-86
2023/08/26 07:46:05;;;;;;;18.97;9.97;;;16.00;83.60;;;;;;4952172;28;20103;-87
2023/08/26 07:48:32;;;;;;;17.98;10.98;;;16.00;83.70;;;;;;4957205;28;20114;-86
2023/08/26 07:50:59;;;;;;;18.27;11.07;;;16.00;83.90;;;;;;4951415;28;20164;-85
2023/08/26 07:53:26;;;;;;;17.85;11.55;;;16.00;83.90;;;;;;4951922;28;20047;-86
2023/08/26 07:55:55;;;;;;;18.02;11.13;;;16.00;84.00;;;;;;4936746;28;20156;-87
2023/08/26 07:58:22;;;;;;;18.43;11.13;;;16.00;84.40;;;;;;4951333;28;21067;-86
2023/08/26 08:00:49;;;;;;;19.38;11.38;;;16.10;84.30;;;;;;4938347;28;20118;-89
2023/08/26 08:03:18;;;;;;;19.48;11.60;;;16.10;83.70;;;;;;4954007;28;20059;-89
2023/08/26 08:05:45;;;;;;;17.50;11.45;;;16.10;83.70;;;;;;4951371;28;20056;-86
2023/08/26 08:08:12;;;;;;;16.42;10.70;;;16.20;83.80;;;;;;4934323;28;20057;-85
2023/08/26 08:10:39;;;;;;;19.00;11.63;;;16.20;83.90;;;;;;4950360;28;20054;-85
2023/08/26 08:13:08;;;;;;;17.02;10.27;;;16.30;83.80;;;;;;4934340;28;20059;-83
2023/08/26 08:15:35;;;;;;;15.57;8.30;;;16.40;83.30;;;;;;4951242;28;20052;-85
2023/08/26 08:18:03;;;;;;;15.48;8.98;;;16.40;82.90;;;;;;4950586;28;20094;-85
2023/08/26 08:20:30;;;;;;;16.85;8.85;;;16.40;82.60;;;;;;4950763;28;20078;-86
2023/08/26 08:22:58;;;;;;;16.17;10.70;;;16.40;82.80;;;;;;4952544;28;20062;-91
2023/08/26 08:25:25;;;;;;;15.65;9.93;;;16.40;82.90;;;;;;4952445;28;20980;-86
2023/08/26 08:27:52;;;;;;;17.50;10.95;;;16.50;82.30;;;;;;4934747;28;20138;-88
2023/08/26 08:30:21;;;;;;;14.93;10.32;;;16.50;82.00;;;;;;4936828;28;20056;-86
2023/08/26 08:32:48;;;;;;;16.25;10.57;;;16.50;81.80;;;;;;4952920;28;20043;-87
2023/08/26 08:35:17;;;;;;;15.87;10.23;;;16.60;81.60;;;;;;4935736;28;20060;-87
2023/08/26 08:37:44;;;;;;;17.33;10.85;;;16.60;81.70;;;;;;4953747;28;20135;-87
2023/08/26 08:40:15;;;;;;;14.65;9.95;;;16.60;81.50;;;;;;4951179;28;20139;-87
2023/08/26 08:42:47;;;;;;;17.00;10.55;;;16.60;81.20;;;;;;4951560;28;20051;-86
2023/08/26 08:45:15;;;;;;;15.40;10.43;;;16.70;80.70;;;;;;4968443;28;20060;-87
2023/08/26 08:47:45;;;;;;;14.80;9.27;;;16.70;80.30;;;;;;4952501;28;20071;-86
2023/08/26 08:50:15;;;;;;;15.15;10.43;;;16.70;80.20;;;;;;4969435;28;20059;-87
2023/08/26 08:52:44;;;;;;;14.35;9.82;;;16.70;80.50;;;;;;4956919;28;20056;-87
2023/08/26 08:55:11;;;;;;;17.02;10.38;;;16.70;80.40;;;;;;4936548;28;20059;-87
2023/08/26 08:57:40;;;;;;;14.50;9.52;;;16.80;80.50;;;;;;4952106;28;20051;-87
2023/08/26 09:00:10;;;;;;;15.60;9.53;;;16.80;80.40;;;;;;4952532;28;20055;-87
2023/08/26 09:02:40;;;;;;;15.07;9.20;;;16.80;80.50;;;;;;4952247;28;20060;-88
2023/08/26 09:05:09;;;;;;;15.25;9.40;;;16.90;80.50;;;;;;4968160;28;20055;-86
2023/08/26 09:07:39;;;;;;;12.20;8.07;;;16.90;80.90;;;;;;4952465;28;20167;-88
2023/08/26 09:10:08;;;;;;;12.90;8.52;;;17.00;80.30;;;;;;4951910;28;20552;-87
2023/08/26 09:12:35;;;;;;;12.73;8.60;;;17.10;80.20;;;;;;4968456;28;20680;-87
2023/08/26 09:15:03;;;;;;;11.57;7.22;;;17.10;80.00;;;;;;4952032;28;20050;-87
2023/08/26 09:17:30;;;;;;;12.65;8.38;;;17.20;79.70;;;;;;4952048;28;20143;-87
2023/08/26 09:20:00;;;;;;;13.82;8.00;;;17.20;79.40;;;;;;4952489;28;20056;-87
2023/08/26 09:22:31;;;;;;;12.00;7.68;;;17.20;79.50;;;;;;4951563;28;20050;-88
2023/08/26 09:25:00;;;;;;;12.87;7.60;;;17.30;79.00;;;;;;4951969;28;20056;-87
2023/08/26 09:27:27;;;;;;;10.70;6.95;;;17.40;79.30;;;;;;4951340;28;20051;-86
2023/08/26 09:29:55;;;;;;;10.18;6.28;;;17.40;79.30;;;;;;4952364;28;20052;-87
2023/08/26 09:32:36;;;;;;;11.02;6.72;;;17.40;79.40;;;;;;4968516;28;20891;-88
2023/08/26 09:35:11;;;;;;;13.80;7.05;;;17.50;79.50;;;;;;4952038;28;20055;-88
2023/08/26 09:37:40;;;;;;;12.47;7.23;;;17.50;78.80;;;;;;4969960;28;20048;-87
2023/08/26 09:40:13;;;;;;;10.98;6.57;;;17.50;79.00;;;;;;4971522;28;20047;-88
2023/08/26 09:42:41;;;;;;;12.40;6.68;;;17.50;79.30;;;;;;4971218;28;20106;-87
2023/08/26 09:45:09;;;;;;;11.82;5.75;;;17.60;79.70;;;;;;4970575;28;20060;-86
2023/08/26 09:47:37;;;;;;;11.75;5.60;;;17.60;79.50;;;;;;4971065;28;20497;-88
2023/08/26 09:50:06;;;;;;;10.63;5.57;;;17.70;79.40;;;;;;4963728;28;20060;-87
2023/08/26 09:52:43;;;;;;;10.55;4.72;;;17.80;78.90;;;;;;4951845;28;20058;-87
2023/08/26 09:55:11;;;;;;;8.05;3.83;;;17.90;78.30;;;;;;4936461;28;20096;-88
2023/08/26 09:57:43;;;;;;;7.70;2.15;;;18.00;77.00;;;;;;4938830;28;20135;-87
2023/08/26 10:00:11;;;;;;;6.45;2.25;;;18.10;74.50;;;;;;4952555;28;20051;-87
2023/08/26 10:02:49;;;;;;;6.20;2.10;;;18.20;73.80;;;;;;4951226;28;20058;-86
2023/08/26 10:05:17;;;;;;;5.47;1.85;;;18.20;73.20;;;;;;4951370;28;20528;-87
2023/08/26 10:07:49;;;;;;;5.15;2.10;;;18.30;72.50;;;;;;4935309;28;20055;-87
2023/08/26 10:10:27;;;;;;;7.20;2.13;;;18.40;72.10;;;;;;4935690;28;20134;-88
2023/08/26 10:13:01;;;;;;;6.63;2.03;;;18.50;71.20;;;;;;4952064;28;20516;-88
2023/08/26 10:15:32;;;;;;;6.07;2.30;;;18.50;71.90;;;;;;4935376;28;20563;-87
2023/08/26 10:18:07;;;;;;;4.93;1.60;;;18.70;70.70;;;;;;4952086;28;20114;-88
2023/08/26 10:20:35;;;;;;;6.50;2.08;;;18.70;69.20;;;;;;4951154;28;20048;-87
2023/08/26 10:23:04;;;;;;;6.72;1.70;;;18.80;68.20;;;;;;4951753;28;20051;-87
2023/08/26 10:25:32;;;;;;;5.72;1.45;;;18.90;67.20;;;;;;4936186;28;20063;-88
2023/08/26 10:28:00;;;;;;;6.03;1.60;;;18.90;68.40;;;;;;4951620;28;20058;-87
2023/08/26 10:30:29;;;;;;;6.13;1.77;;;19.00;66.50;;;;;;4951408;28;20055;-87
2023/08/26 10:33:00;;;;;;;5.15;1.60;;;19.00;67.10;;;;;;4951705;28;20127;-88
2023/08/26 10:35:28;;;;;;;5.30;1.50;;;19.10;66.50;;;;;;4936035;28;20494;-86
2023/08/26 10:38:10;;;;;;;5.60;1.38;;;19.10;66.90;;;;;;4952760;28;20052;-88
2023/08/26 10:40:37;;;;;;;7.53;1.80;;;19.10;68.00;;;;;;4951429;28;20051;-88
2023/08/26 10:43:06;;;;;;;5.97;1.52;;;19.20;67.80;;;;;;4951040;28;20223;-87
2023/08/26 10:45:33;;;;;;;4.15;1.38;;;19.20;66.50;;;;;;4936079;28;20624;-89
2023/08/26 10:48:01;;;;;;;6.88;1.38;;;19.30;67.30;;;;;;4951462;28;20048;-89
2023/08/26 10:50:28;;;;;;;4.90;0.90;;;19.30;66.90;;;;;;4951249;28;20060;-87
2023/08/26 10:52:56;;;;;;;6.60;1.30;;;19.30;65.40;;;;;;4935406;28;20055;-88
2023/08/26 10:55:26;;;;;;;4.80;1.10;;;19.40;66.30;;;;;;4950619;28;20059;-87
2023/08/26 10:58:09;;;;;;;4.97;1.20;;;19.40;64.40;;;;;;4952781;28;20107;-87
2023/08/26 11:00:37;;;;;;;3.95;1.10;;;19.40;63.90;;;;;;4952346;28;20107;-88
2023/08/26 11:03:08;;;;;;;5.80;1.20;;;19.40;63.80;;;;;;4951778;28;20048;-88
2023/08/26 11:05:37;;;;;;;4.90;1.30;;;19.40;63.70;;;;;;4951241;28;20051;-86
2023/08/26 11:08:05;;;;;;;5.57;1.50;;;19.40;64.00;;;;;;4935587;28;20067;-87
2023/08/26 11:10:35;;;;;;;3.30;1.13;;;19.40;64.00;;;;;;4952181;28;20071;-88
2023/08/26 11:13:03;;;;;;;4.13;1.02;;;19.40;63.90;;;;;;4950669;28;20552;-88
2023/08/26 11:15:35;;;;;;;4.40;1.30;;;19.50;62.90;;;;;;4950873;28;20056;-87
2023/08/26 11:18:03;;;;;;;4.23;1.27;;;19.50;62.80;;;;;;4950868;28;20083;-88
2023/08/26 11:20:30;;;;;;;4.18;1.40;;;19.60;63.30;;;;;;4934861;28;20977;-88
2023/08/26 11:22:58;;;;;;;5.72;1.27;;;19.60;63.90;;;;;;4950649;28;20056;-87
2023/08/26 11:25:25;;;;;;;4.20;1.10;;;19.70;64.80;;;;;;4951039;28;21019;-89
2023/08/26 11:27:54;;;;;;;3.75;1.30;;;19.70;63.80;;;;;;4951093;28;20055;-88
2023/08/26 11:30:22;;;;;;;3.30;0.90;;;19.70;62.80;;;;;;4950759;28;20059;-89
2023/08/26 11:32:50;;;;;;;4.05;1.20;;;19.80;63.60;;;;;;4934497;28;20075;-87
2023/08/26 11:35:18;;;;;;;4.03;1.20;;;19.70;64.00;;;;;;4951315;28;20406;-87
2023/08/26 11:37:48;;;;;;;5.95;1.52;;;19.70;64.90;;;;;;4950280;28;20051;-87
2023/08/26 11:40:16;;;;;;;5.82;1.30;;;19.90;63.30;;;;;;4950019;28;20147;-88
2023/08/26 11:42:43;;;;;;;4.13;1.23;;;19.90;63.40;;;;;;4950414;28;20048;-87
2023/08/26 11:45:13;;;;;;;3.67;1.30;;;20.00;63.10;;;;;;4950597;28;20062;-87
2023/08/26 11:47:41;;;;;;;6.10;1.70;;;20.00;61.70;;;;;;4950067;28;20051;-89
2023/08/26 11:50:10;;;;;;;3.72;1.10;;;20.10;60.80;;;;;;4950678;28;20079;-87
2023/08/26 11:52:38;;;;;;;3.78;1.50;;;20.10;60.00;;;;;;4950446;28;20532;-89
2023/08/26 11:55:08;;;;;;;5.40;1.40;;;20.10;60.10;;;;;;4935214;28;20147;-89
2023/08/26 11:57:37;;;;;;;3.80;1.73;;;20.00;60.40;;;;;;4951318;28;20523;-87
2023/08/26 12:00:09;;;;;;;5.68;1.80;;;20.00;60.20;;;;;;4935237;28;20068;-88
2023/08/26 12:02:46;;;;;;;3.92;1.50;;;19.90;61.10;;;;;;4951845;28;20055;-88
2023/08/26 12:05:15;;;;;;;4.32;2.20;;;19.90;61.40;;;;;;4954239;28;20052;-88
2023/08/26 12:07:44;;;;;;;4.87;1.90;;;19.80;62.20;;;;;;4954352;28;20111;-88
2023/08/26 12:10:17;;;;;;;4.63;1.85;;;19.80;62.70;;;;;;4954416;28;20852;-88
2023/08/26 12:12:46;;;;;;;4.40;2.00;;;19.90;62.30;;;;;;4954565;28;20055;-87
2023/08/26 12:15:14;;;;;;;3.45;1.45;;;19.90;61.80;;;;;;4954202;28;20056;-88
2023/08/26 12:17:47;;;;;;;3.72;1.58;;;19.90;60.90;;;;;;4953569;28;20580;-88
2023/08/26 12:20:22;;;;;;;6.27;2.20;;;19.90;61.10;;;;;;4954328;28;20130;-88
2023/08/26 12:22:49;;;;;;;3.95;2.20;;;19.90;61.40;;;;;;4953992;28;20143;-87
2023/08/26 12:25:25;;;;;;;4.80;2.63;;;19.90;61.40;;;;;;4953803;28;20131;-87
2023/08/26 12:27:53;;;;;;;3.92;2.20;;;19.90;61.20;;;;;;4953916;28;20142;-88
2023/08/26 12:30:20;;;;;;;5.22;2.55;;;19.90;60.90;;;;;;4954944;28;20182;-89
2023/08/26 12:32:49;;;;;;;4.73;2.60;;;19.80;61.80;;;;;;4954648;28;20454;-88
2023/08/26 12:35:16;;;;;;;4.75;2.30;;;19.90;62.50;;;;;;4954648;28;20139;-88
2023/08/26 12:37:43;;;;;;;3.20;1.73;;;19.90;63.10;;;;;;4954525;28;20075;-88
2023/08/26 12:40:12;;;;;;;3.47;1.80;;;19.90;63.10;;;;;;4954253;28;20139;-87
2023/08/26 12:42:41;;;;;;;4.22;2.15;;;19.90;62.30;;;;;;4954942;28;20126;-90
2023/08/26 12:45:09;;;;;;;5.50;2.67;;;20.00;62.60;;;;;;4954382;28;20074;-87
2023/08/26 12:47:36;;;;;;;6.20;2.20;;;20.00;62.70;;;;;;4954874;28;20513;-88
2023/08/26 12:50:06;;;;;;;4.40;1.90;;;20.00;63.50;;;;;;4938073;28;20059;-88
2023/08/26 12:52:33;;;;;;;5.50;2.13;;;20.00;64.40;;;;;;4953923;28;20059;-89